Norden-Norddeich Airport

EDWS · Lower Saxony, Germany

October 6, 2022

Time Code Weather Temp. Visibility Ceiling Wind METAR/SPECI
23:20
V
11 °C 10 km+ - 220° 220° 8 kt METAR ETMN 062120Z 22008KT 9999 11/07 Q1027 BLU+BLU+
22:20
V
11 °C 10 km+ - 220° 220° 6 kt METAR ETMN 062020Z 22006KT 9999 11/08 Q1027 BLU+BLU+
21:20
V
12 °C 10 km+ - 220° 220° 7 kt METAR ETMN 061920Z 22007KT 9999 FEW350 12/07 Q1027 BLU+BLU+
20:20
V
12 °C 10 km+ - 230° 230° 8 kt METAR ETMN 061820Z 23008KT 9999 FEW350 12/07 Q1027 BLU+BLU+
19:20
V
13 °C 10 km+ - 240° 240° 9 kt METAR ETMN 061720Z 24009KT 9999 FEW050 13/07 Q1026 BLU+BLU+
18:20
V
15 °C 10 km+ - 250° 250° 11 kt METAR ETMN 061620Z 25011KT 9999 FEW250 15/07 Q1026 BLU+BLU+
17:20
V
16 °C 10 km+ - 250° 250° 13 kt METAR ETMN 061520Z 25013KT 9999 FEW040 16/07 Q1026 BLU+BLU+
16:20
V
16 °C 10 km+ - 250° 250° 16 kt METAR ETMN 061420Z 25016KT 9999 FEW035 16/07 Q1026 BLU+BLU+
15:20
V
16 °C 10 km+ - 250° 250° 14 kt METAR ETMN 061320Z 25014KT 9999 FEW032 16/08 Q1026 BLU+BLU+
14:20
V
16 °C 10 km+ - 250° 250° 13 - 24 kt METAR ETMN 061220Z 25013G24KT 9999 FEW030 16/07 Q1026 BLU+BLU+
13:20
V
16 °C 10 km+ - 250° 250° 17 kt METAR ETMN 061120Z 25017KT 9999 FEW030 16/08 Q1025 BLU+BLU+ TEMPO BLU
12:20
V
15 °C 10 km+ - 260° 260° 17 kt METAR ETMN 061020Z 26017KT 9999 FEW025 15/08 Q1025 BLU+BLU+ TEMPO BLU
11:20
V
14 °C 10 km+ - 240° 240° 14 - 27 kt METAR ETMN 060920Z 24014G27KT 9999 FEW020 14/09 Q1024 BLU+BLU+ TEMPO BLU
10:20
V
14 °C 10 km+ - 250° 250° 16 kt METAR ETMN 060820Z 25016KT 9999 FEW020 14/09 Q1023 BLU+BLU+ TEMPO BLU
09:20
V
13 °C 10 km+ - 250° 250° 14 - 25 kt METAR ETMN 060720Z 25014G25KT 9999 FEW020 13/09 Q1022 BLU+BLU+ TEMPO BLU
08:20
V
12 °C 10 km+ - 250° 250° 14 - 24 kt METAR ETMN 060620Z 25014G24KT 9999 FEW020 SCT030 12/08 Q1021 BLU+BLU+ TEMPO BLU
07:20
V
13 °C 10 km+ - 250° 250° 16 kt METAR ETMN 060520Z 25016KT 9999 FEW020 13/08 Q1019 BLU+BLU+ TEMPO BLU
06:20
V
13 °C 10 km+ - 250° 250° 17 - 27 kt METAR ETMN 060420Z 25017G27KT 9999 FEW036 13/09 Q1018 BLU+BLU+ TEMPO BLU
05:20
V
13 °C 10 km+ - 250° 250° 19 kt METAR ETMN 060320Z 25019KT 9999 FEW050 13/09 Q1017 BLU+BLU TEMPO BLU+
04:20
V
13 °C 10 km+ - 250° 250° 14 - 25 kt METAR ETMN 060220Z 25014G25KT 9999 13/10 Q1016 BLU+BLU TEMPO BLU+
03:20
V
14 °C 10 km+ - 240° 240° 14 - 24 kt METAR ETMN 060120Z 24014G24KT 9999 SCT019 14/11 Q1015 BLU+BLU TEMPO BLU+
02:20
V
14 °C 10 km+ - 250° 250° 17 kt METAR ETMN 060020Z 25017KT 9999 FEW110 14/11 Q1015 BLU+BLU TEMPO BLU+
01:20
M
15 °C 10 km+ 2,600 ft 250° 250° 20 kt METAR ETMN 052320Z 25020KT 9999 FEW018 BKN026 BKN070 15/11 Q1013 BLU WHT TEMPO BLU
00:20
V
15 °C 10 km+ 6,000 ft 250° 250° 17 kt METAR ETMN 052220Z 25017KT 9999 FEW010 BKN060 15/12 Q1012 BLU WHT TEMPO BLU

October 5, 2022

Time Code Weather Temp. Visibility Ceiling Wind METAR/SPECI
23:54
V
15 °C 10 km+ 4,400 ft 250° 250° 19 kt METAR ETMN 052154Z 25019KT 9999 SCT015 BKN044 15/12 Q1012 BLU WHT TEMPO BLU
23:20
M
16 °C 10 km+ 1,900 ft 240° 240° 18 - 31 kt METAR ETMN 052120Z 24018G31KT 9999 BKN019 16/12 Q1011 WHT WHT
22:49
M
17 °C 10 km+ 2,200 ft 230° 230° 18 - 36 kt METAR ETMN 052049Z 23018G36KT 9999 BKN022 17/12 Q1011 WHT WHT
22:40
M
17 °C 10 km+ 2,400 ft 230° 230° 16 - 28 kt METAR ETMN 052040Z 23016G28KT 9999 BKN024 17/12 Q1011 WHT WHT
22:20
M
17 °C 10 km+ 2,700 ft 230° 230° 16 - 28 kt METAR ETMN 052020Z 23016G28KT 9999 BKN027 17/12 Q1010 BLU BLU BECMG WHT
21:20
M
17 °C 10 km+ 2,700 ft 220° 220° 14 kt METAR ETMN 051920Z 22014KT 9999 BKN027 17/12 Q1010 BLU BLU BECMG WHT
20:20
V
16 °C 10 km+ 3,600 ft 210° 210° 8 kt METAR ETMN 051820Z 21008KT 9999 FEW029 BKN036 16/12 Q1010 BLU BLU
19:20
V
17 °C 10 km+ 4,200 ft 220° 220° 8 kt METAR ETMN 051720Z 22008KT 9999 SCT029 BKN042 17/12 Q1011 BLU BLU TEMPO WHT
18:20
V
17 °C 10 km+ 3,500 ft 220° 220° 10 kt METAR ETMN 051620Z 22010KT 9999 BKN035 17/12 Q1010 BLU BLU TEMPO WHT
17:20
V
17 °C 10 km+ 3,100 ft 210° 210° 9 kt METAR ETMN 051520Z 21009KT 9999 BKN031 17/12 Q1010 BLU BLU TEMPO WHT
16:20
M
16 °C 10 km+ 2,900 ft 220° 220° 10 kt METAR ETMN 051420Z 22010KT 9999 OVC029 16/11 Q1011 BLU BLU TEMPO WHT
15:20
M
16 °C 10 km+ 2,600 ft 220° 220° 11 kt METAR ETMN 051320Z 22011KT 9999 FEW023 OVC026 16/11 Q1011 BLU BLU TEMPO WHT
14:20
M
16 °C 10 km+ 2,500 ft 220° 220° 12 kt METAR ETMN 051220Z 22012KT 9999 OVC025 16/11 Q1011 BLU BLU TEMPO WHT
13:20
M
16 °C 10 km+ 2,400 ft 220° 220° 17 - 30 kt METAR ETMN 051120Z 22017G30KT 9999 BKN024 16/11 Q1011 WHT BLU TEMPO WHT
12:20
M
16 °C 10 km+ 2,600 ft 220° 220° 15 - 25 kt METAR ETMN 051020Z 22015G25KT 9999 BKN026 16/11 Q1012 BLU BLU TEMPO WHT
11:20
M
15 °C 10 km+ 2,600 ft 220° 220° 13 - 23 kt METAR ETMN 050920Z 22013G23KT 9999 BKN026 15/11 Q1012 BLU BLU TEMPO WHT
10:20
M
14 °C 10 km+ 2,600 ft 210° 210° 15 kt METAR ETMN 050820Z 21015KT 9999 OVC026 14/11 Q1012 BLU BLU TEMPO WHT
09:20
M
14 °C 10 km+ 2,900 ft 210° 210° 14 kt METAR ETMN 050720Z 21014KT 9999 BKN029 OVC200 14/11 Q1012 BLU BLU
08:20
V
14 °C 10 km+ 3,000 ft 210° 210° 13 kt METAR ETMN 050620Z 21013KT 9999 BKN030 OVC220 14/11 Q1012 BLU BLU
07:20
V
14 °C 10 km+ 3,400 ft 210° 210° 11 kt METAR ETMN 050520Z 21011KT 9999 BKN034 OVC160 14/11 Q1012 BLU BLU
06:20
V
15 °C 10 km+ 3,400 ft 210° 210° 14 kt METAR ETMN 050420Z 21014KT 9999 OVC034 15/10 Q1013 BLU BLU
05:20
V
14 °C 10 km+ 3,400 ft 210° 210° 9 - 19 kt METAR ETMN 050320Z 21009G19KT 9999 OVC034 14/10 Q1013 BLU
04:20
V
15 °C 10 km+ 4,000 ft 220° 220° 10 kt METAR ETMN 050220Z 22010KT 9999 BKN040 15/10 Q1014 BLU
03:20
V
15 °C 10 km+ 4,200 ft 220° 220° 11 kt METAR ETMN 050120Z 22011KT 9999 BKN042 15/10 Q1014 BLU
02:38
V
15 °C 10 km+ 4,300 ft 220° 220° 11 kt METAR ETMN 050038Z 22011KT 9999 BKN043 BKN160 15/10 Q1014 BLU FCST CNL
02:20
V
15 °C 10 km+ 4,200 ft 220° 220° 11 kt METAR ETMN 050020Z 22011KT 9999 BKN042 15/10 Q1015 BLU BLU TEMPO WHT
01:20
V
15 °C 10 km+ 3,900 ft 220° 220° 12 kt METAR ETMN 042320Z 22012KT 9999 BKN039 15/10 Q1015 BLU BLU TEMPO WHT
00:20
V
14 °C 10 km+ 4,600 ft 220° 220° 9 kt METAR ETMN 042220Z 22009KT 9999 BKN046 BKN180 14/09 Q1015 BLU BLU TEMPO WHT

October 4, 2022

Time Code Weather Temp. Visibility Ceiling Wind METAR/SPECI
23:20
V
14 °C 10 km+ 4,000 ft 220° 220° 10 kt METAR ETMN 042120Z 22010KT 9999 BKN040 14/09 Q1016 BLU BLU TEMPO WHT
22:20
V
14 °C 10 km+ 4,400 ft 210° 210° 10 kt METAR ETMN 042020Z 21010KT 9999 BKN044 BKN220 14/09 Q1016 BLU BLU TEMPO WHT
21:20
V
14 °C 10 km+ 4,200 ft 220° 220° 8 kt METAR ETMN 041920Z 22008KT 9999 BKN042 BKN230 14/09 Q1016 BLU BLU
20:20
V
14 °C 10 km+ 27,000 ft 210° 210° 7 kt METAR ETMN 041820Z 21007KT 9999 FEW140 BKN270 14/09 Q1016 BLU+BLU+
19:20
V
14 °C 10 km+ 30,000 ft 220° 220° 5 kt METAR ETMN 041720Z 22005KT 9999 FEW140 BKN300 14/09 Q1017 BLU+BLU+
18:20
V
15 °C 10 km+ 33,000 ft 210° 210° 6 kt METAR ETMN 041620Z 21006KT 9999 FEW140 BKN330 15/09 Q1017 BLU+BLU+
17:20
V
17 °C 10 km+ 38,000 ft 210° 210° 9 kt METAR ETMN 041520Z 21009KT 9999 FEW140 BKN380 17/09 Q1017 BLU+BLU+
Older data

We and third parties follow your internet behavior on our website with cookies. If you continue, we assume you agree with our cookie policy. Learn more